KPVG

Hampton Roads Executive Airport

Norfolk, Virginia, USA
METAR KPVG 182256Z VRB06KT 8SM RA FEW050 BKN065 BKN080 23/22 A2990 RMK AO2 LTG DSNT E-SW TSB10E33RAB44 SLP125 T02330222 PNO $
Observed Flight Rules
Aug-18 @ 22:56 UTC (51 minutes ago) Visual Flight Rules
Wind Visibility Clouds Conditions
Variable at 6 knots 8 miles
  • Few at 5,000' AGL
  • Broken at 6,500' AGL
  • Broken at 8,000' AGL
  • Rain
Temperatures Readings
Current 23°C / 73°F
Dewpoint 22°C / 72°F
Humidity 94%
Altimeter 29.9" Hg
Pressure 1012.5 hPa
Elevation 7
METAR KPVG 182256Z VRB06KT 8SM RA FEW050 BKN065 BKN080 23/22 A2990 RMK AO2 LTG DSNT E-SW TSB10E33RAB44 SLP125 T02330222 PNO $
Observed Flight Rules
Aug-18 @ 22:56 UTC
(51 minutes ago)
VFR
Wind Visibility
Variable at 6 knots 8 miles
Clouds
  • Few at 5,000' AGL
  • Broken at 6,500' AGL
  • Broken at 8,000' AGL
Conditions
  • Rain
Temperature Dewpoint
23°C / 73°F 22°C / 72°F
Humidity Altimeter Pressure
94% 29.9" Hg 1012.5 hPa